Time;durP1;ratioP1;P1;durP2;ratioP2;P2;SDS_P1;SDS_P2;PMS_P1;PMS_P2;Temp;Humidity;BMP_temperature;BMP_pressure;BME280_temperature;BME280_humidity;BME280_pressure;Samples;Min_cycle;Max_cycle;Signal;HPM_P1;HPM_P2
2024/01/25 06:43:40;;;;;;;8.15;2.42;;;;;;;;;;10514456;28;20472;-84
2024/01/25 06:48:41;;;;;;;8.02;2.58;;;;;;;;;;10535657;28;20098;-85
2024/01/25 06:53:42;;;;;;;11.88;2.67;;;;;;;;;;10515654;28;20052;-85
2024/01/25 06:58:43;;;;;;;7.43;2.20;;;;;;;;;;10502050;28;20092;-85
2024/01/25 07:03:44;;;;;;;10.23;3.30;;;;;;;;;;10498002;28;20077;-85
2024/01/25 07:08:45;;;;;;;6.45;2.28;;;;;;;;;;10504216;28;20113;-85
2024/01/25 07:13:46;;;;;;;10.02;3.60;;;;;;;;;;10514622;28;20028;-84
2024/01/25 07:18:47;;;;;;;9.23;3.30;;;;;;;;;;10518730;28;20131;-85
2024/01/25 07:23:48;;;;;;;;;;;;;;;;;;10499721;28;20035;-85
2024/01/25 07:28:49;;;;;;;11.95;4.18;;;;;;;;;;10502181;28;19905;-86
2024/01/25 07:33:50;;;;;;;;;;;;;;;;;;10501152;28;20033;-84
2024/01/25 07:38:51;;;;;;;9.48;2.92;;;;;;;;;;10500017;28;19911;-86
2024/01/25 07:43:55;;;;;;;;;;;;;;;;;;10506019;28;20033;-85
2024/01/25 07:48:55;;;;;;;7.70;2.95;;;;;;;;;;10506682;28;19904;-85
2024/01/25 07:53:56;;;;;;;;;;;;;;;;;;10506628;28;20021;-80
2024/01/25 07:58:59;;;;;;;8.80;2.83;;;;;;;;;;10499662;28;19905;-85
2024/01/25 08:04:00;;;;;;;9.00;3.10;;;;;;;;;;10506969;28;20020;-84
2024/01/25 08:09:02;;;;;;;;;;;;;;;;;;10476919;28;20485;-84
2024/01/25 08:14:03;;;;;;;15.07;5.85;;;;;;;;;;10479248;28;20411;-83
2024/01/25 08:19:04;;;;;;;;;;;;;;;;;;10473527;28;20120;-83
2024/01/25 08:24:05;;;;;;;18.85;6.22;;;;;;;;;;10472227;28;19905;-81
2024/01/25 08:29:06;;;;;;;;;;;;;;;;;;10470373;28;20047;-81
2024/01/25 08:34:07;;;;;;;16.65;5.85;;;;;;;;;;10482032;28;20031;-79
2024/01/25 08:39:08;;;;;;;15.63;5.43;;;;;;;;;;10466776;28;20127;-79
2024/01/25 08:44:09;;;;;;;;;;;;;;;;;;10467670;28;20087;-79
2024/01/25 08:49:12;;;;;;;14.55;5.10;;;;;;;;;;10466747;28;19913;-79
2024/01/25 08:54:13;;;;;;;15.65;5.38;;;;;;;;;;10469442;28;20017;-79
2024/01/25 08:59:14;;;;;;;;;;;;;;;;;;10472375;28;20029;-80
2024/01/25 09:04:15;;;;;;;16.35;6.43;;;;;;;;;;10471364;28;19904;-79
2024/01/25 09:09:16;;;;;;;16.58;6.53;;;;;;;;;;10479964;28;20365;-79
2024/01/25 09:14:17;;;;;;;;;;;;;;;;;;10468937;28;20124;-80
2024/01/25 09:19:18;;;;;;;9.93;4.40;;;;;;;;;;10465268;28;19905;-80
2024/01/25 09:24:19;;;;;;;13.82;6.28;;;;;;;;;;10466856;28;20029;-80
2024/01/25 09:29:21;;;;;;;12.95;5.50;;;;;;;;;;10468415;28;20052;-80
2024/01/25 09:34:22;;;;;;;;;;;;;;;;;;10465877;28;20028;-79
2024/01/25 09:39:23;;;;;;;12.82;4.93;;;;;;;;;;10465055;28;19917;-79
2024/01/25 09:44:24;;;;;;;13.57;5.10;;;;;;;;;;10460459;28;20035;-80
2024/01/25 09:49:25;;;;;;;14.80;5.50;;;;;;;;;;10480502;28;20033;-80
2024/01/25 09:54:26;;;;;;;17.13;7.00;;;;;;;;;;10466801;28;20040;-80
2024/01/25 09:59:27;;;;;;;14.73;5.35;;;;;;;;;;10466755;28;20416;-80
2024/01/25 10:04:29;;;;;;;16.77;6.13;;;;;;;;;;10468392;28;20163;-80
2024/01/25 10:09:42;;;;;;;11.73;5.38;;;;;;;;;;10474523;28;20374;-82
2024/01/25 10:14:43;;;;;;;13.77;5.40;;;;;;;;;;10476476;28;20029;-81
2024/01/25 10:19:44;;;;;;;11.77;5.25;;;;;;;;;;10479316;28;20032;-80
2024/01/25 10:24:46;;;;;;;11.68;5.18;;;;;;;;;;10475225;28;20060;-80
2024/01/25 10:29:47;;;;;;;13.00;5.13;;;;;;;;;;10468461;28;20037;-81
2024/01/25 10:34:49;;;;;;;22.48;7.78;;;;;;;;;;10471242;28;20044;-82
2024/01/25 10:39:51;;;;;;;11.40;4.57;;;;;;;;;;10469614;28;20059;-82
2024/01/25 10:45:03;;;;;;;14.10;5.82;;;;;;;;;;10478908;28;20021;-82
2024/01/25 10:50:05;;;;;;;26.98;8.80;;;;;;;;;;10478813;28;20029;-79
2024/01/25 10:55:08;;;;;;;13.23;5.72;;;;;;;;;;10467299;28;20157;-80
2024/01/25 11:00:17;;;;;;;16.08;6.20;;;;;;;;;;10469113;28;20401;-81
2024/01/25 11:05:23;;;;;;;13.18;4.60;;;;;;;;;;10480036;28;20091;-80
2024/01/25 11:10:25;;;;;;;12.70;4.95;;;;;;;;;;10466118;28;20037;-80
2024/01/25 11:15:33;;;;;;;12.50;4.75;;;;;;;;;;10472336;28;20126;-81
2024/01/25 11:20:36;;;;;;;13.10;5.75;;;;;;;;;;10472218;28;20028;-81
2024/01/25 11:25:43;;;;;;;12.18;5.00;;;;;;;;;;10477270;28;20040;-82
2024/01/25 11:30:50;;;;;;;13.13;5.15;;;;;;;;;;10482430;28;20068;-80
2024/01/25 11:35:57;;;;;;;12.63;5.45;;;;;;;;;;10488743;28;20040;-82
2024/01/25 11:40:59;;;;;;;16.23;5.70;;;;;;;;;;10483409;28;20037;-82
2024/01/25 11:46:00;;;;;;;20.08;6.95;;;;;;;;;;10459695;28;20028;-82
2024/01/25 11:51:01;;;;;;;18.15;6.75;;;;;;;;;;10456748;28;20120;-81
2024/01/25 11:56:03;;;;;;;11.40;5.20;;;;;;;;;;10473433;28;20052;-81
2024/01/25 12:01:07;;;;;;;21.27;8.18;;;;;;;;;;10474302;28;20033;-82
2024/01/25 12:06:09;;;;;;;10.88;4.50;;;;;;;;;;10476592;28;20028;-82
2024/01/25 12:11:11;;;;;;;17.52;7.45;;;;;;;;;;10471915;28;20017;-82
2024/01/25 12:16:12;;;;;;;14.43;6.03;;;;;;;;;;10477984;28;20469;-81
2024/01/25 12:21:14;;;;;;;14.20;5.18;;;;;;;;;;10485971;28;20433;-82
2024/01/25 12:26:16;;;;;;;15.15;6.07;;;;;;;;;;10476398;28;20114;-81
2024/01/25 12:31:17;;;;;;;14.20;5.32;;;;;;;;;;10479199;28;20135;-81
2024/01/25 12:36:18;;;;;;;12.27;4.90;;;;;;;;;;10488834;28;20018;-81
2024/01/25 12:41:19;;;;;;;16.75;6.03;;;;;;;;;;10479888;28;20029;-81
2024/01/25 12:46:21;;;;;;;13.40;4.95;;;;;;;;;;10483646;28;20036;-81
2024/01/25 12:51:22;;;;;;;20.40;8.77;;;;;;;;;;10497187;28;20029;-82
2024/01/25 12:56:23;;;;;;;20.88;8.27;;;;;;;;;;10435597;22;20052;-79
2024/01/25 13:01:24;;;;;;;20.77;7.75;;;;;;;;;;10408232;28;20072;-79
2024/01/25 13:06:27;;;;;;;25.92;10.40;;;;;;;;;;10408021;28;20037;-80
2024/01/25 13:11:28;;;;;;;19.40;7.32;;;;;;;;;;10392040;28;20148;-79
2024/01/25 13:16:30;;;;;;;19.27;8.23;;;;;;;;;;10406238;28;20026;-78
2024/01/25 13:21:31;;;;;;;22.77;9.45;;;;;;;;;;10415599;28;20049;-83
2024/01/25 13:26:33;;;;;;;15.75;7.18;;;;;;;;;;10409056;28;20185;-83
2024/01/25 13:31:34;;;;;;;12.13;5.47;;;;;;;;;;10407721;28;20080;-81
2024/01/25 13:36:35;;;;;;;;;;;;;;;;;;10387523;28;20021;-80
2024/01/25 13:41:36;;;;;;;10.70;4.63;;;;;;;;;;10404133;28;19905;-80
2024/01/25 13:52:06;;;;;;;11.45;5.30;;;;;;;;;;10389952;28;20030;-82
2024/01/25 13:57:08;;;;;;;16.80;6.18;;;;;;;;;;10384825;28;20070;-82
2024/01/25 14:02:12;;;;;;;18.42;6.35;;;;;;;;;;10356727;28;20033;-80
2024/01/25 14:07:43;;;;;;;11.80;4.72;;;;;;;;;;10390194;28;20118;-83
2024/01/25 14:19:08;;;;;;;17.38;5.88;;;;;;;;;;10361920;28;20033;-83
2024/01/25 14:24:10;;;;;;;20.35;6.70;;;;;;;;;;10391282;28;20026;-84
2024/01/25 14:29:11;;;;;;;15.45;6.38;;;;;;;;;;10432591;28;20034;-83
2024/01/25 14:34:19;;;;;;;14.93;5.43;;;;;;;;;;10401100;28;20026;-81
2024/01/25 14:39:49;;;;;;;15.13;6.47;;;;;;;;;;10387909;28;20173;-80
2024/01/25 14:45:04;;;;;;;14.38;5.50;;;;;;;;;;10409816;28;20030;-83
2024/01/25 14:50:17;;;;;;;13.65;5.55;;;;;;;;;;10386351;28;20029;-81
2024/01/25 14:55:26;;;;;;;11.40;5.30;;;;;;;;;;10404364;28;20030;-81
2024/01/25 15:00:44;;;;;;;10.65;4.28;;;;;;;;;;10391507;28;20448;-82
2024/01/25 15:05:59;;;;;;;13.00;5.80;;;;;;;;;;10397271;28;20036;-82
2024/01/25 15:11:28;;;;;;;15.02;7.07;;;;;;;;;;10371162;28;20068;-82
2024/01/25 15:17:05;;;;;;;16.05;6.43;;;;;;;;;;10412417;28;20053;-82
2024/01/25 15:22:07;;;;;;;25.13;9.68;;;;;;;;;;10392351;28;20179;-83
2024/01/25 15:27:09;;;;;;;16.27;6.07;;;;;;;;;;10410555;28;20041;-80
2024/01/25 15:32:10;;;;;;;14.65;7.00;;;;;;;;;;10407627;28;20105;-81
2024/01/25 15:37:11;;;;;;;;;;;;;;;;;;10407761;28;20029;-81
2024/01/25 15:42:30;;;;;;;28.73;11.30;;;;;;;;;;10396958;28;19906;-82
2024/01/25 15:47:32;;;;;;;17.30;6.82;;;;;;;;;;10391641;28;20560;-80
2024/01/25 15:52:33;;;;;;;18.73;8.85;;;;;;;;;;10393127;28;20359;-82
2024/01/25 15:57:39;;;;;;;29.60;10.70;;;;;;;;;;10410343;28;20038;-83
2024/01/25 16:02:42;;;;;;;38.40;16.58;;;;;;;;;;10399500;28;20036;-82
2024/01/25 16:07:43;;;;;;;24.50;9.13;;;;;;;;;;10389930;28;20026;-79
2024/01/25 16:12:44;;;;;;;;;;;;;;;;;;10413560;28;20026;-79
2024/01/25 16:17:46;;;;;;;27.67;10.73;;;;;;;;;;10419983;28;19916;-79
2024/01/25 16:22:52;;;;;;;27.45;10.57;;;;;;;;;;10391906;28;20105;-83
2024/01/25 16:27:54;;;;;;;26.42;10.75;;;;;;;;;;10391320;28;20038;-85
2024/01/25 16:32:57;;;;;;;30.60;10.52;;;;;;;;;;10396883;28;20061;-82
2024/01/25 16:38:00;;;;;;;25.90;9.60;;;;;;;;;;10390070;28;20030;-82
2024/01/25 16:43:01;;;;;;;;;;;;;;;;;;10416703;28;20029;-82
2024/01/25 16:48:02;;;;;;;26.88;9.68;;;;;;;;;;10427796;28;19914;-82
2024/01/25 16:53:04;;;;;;;19.27;7.88;;;;;;;;;;10399269;28;20082;-83
2024/01/25 16:58:05;;;;;;;27.58;11.57;;;;;;;;;;10398503;28;20022;-82
2024/01/25 17:03:06;;;;;;;;;;;;;;;;;;10384817;28;20029;-83
2024/01/25 17:08:06;;;;;;;24.60;9.02;;;;;;;;;;10405752;28;20288;-83
2024/01/25 17:13:07;;;;;;;;;;;;;;;;;;10402186;28;20057;-83
2024/01/25 17:18:08;;;;;;;12.82;5.22;;;;;;;;;;10386918;28;20304;-82
2024/01/25 17:23:09;;;;;;;;;;;;;;;;;;10402409;28;20125;-82
2024/01/25 17:28:11;;;;;;;19.45;7.88;;;;;;;;;;10400839;28;20361;-84
2024/01/25 17:33:12;;;;;;;23.42;9.57;;;;;;;;;;10402648;28;20096;-85
2024/01/25 17:38:13;;;;;;;;;;;;;;;;;;10404190;28;20053;-84
2024/01/25 17:43:14;;;;;;;18.48;7.07;;;;;;;;;;10404916;28;19910;-84
2024/01/25 17:48:15;;;;;;;;;;;;;;;;;;10404048;28;20482;-84
2024/01/25 17:53:16;;;;;;;13.73;6.15;;;;;;;;;;10385338;28;19963;-84
2024/01/25 17:58:17;;;;;;;15.73;6.38;;;;;;;;;;10401215;28;20498;-84
2024/01/25 18:03:19;;;;;;;;;;;;;;;;;;10400505;28;20069;-81
2024/01/25 18:08:20;;;;;;;23.23;8.85;;;;;;;;;;10397187;28;20383;-81
2024/01/25 18:13:21;;;;;;;;;;;;;;;;;;10398423;28;20120;-81
2024/01/25 18:18:22;;;;;;;19.50;7.47;;;;;;;;;;10397417;28;19890;-81
2024/01/25 18:23:23;;;;;;;;;;;;;;;;;;10397082;28;20037;-81
2024/01/25 18:28:24;;;;;;;16.17;6.55;;;;;;;;;;10395519;28;19912;-81
2024/01/25 18:33:25;;;;;;;15.05;5.70;;;;;;;;;;10396027;28;20026;-81
2024/01/25 18:38:26;;;;;;;;;;;;;;;;;;10395742;28;20029;-81
2024/01/25 18:43:27;;;;;;;14.82;5.30;;;;;;;;;;10397034;28;19905;-80
2024/01/25 18:48:28;;;;;;;;;;;;;;;;;;10395801;28;20544;-81
2024/01/25 18:53:30;;;;;;;13.90;5.60;;;;;;;;;;10416238;22;19970;-85
2024/01/25 18:58:31;;;;;;;15.70;5.53;;;;;;;;;;10419376;28;20056;-85
2024/01/25 19:03:32;;;;;;;19.27;7.35;;;;;;;;;;10437681;28;20034;-83
2024/01/25 19:08:33;;;;;;;12.27;4.82;;;;;;;;;;10427075;28;20033;-84
2024/01/25 19:13:34;;;;;;;;;;;;;;;;;;10432072;28;20061;-84
2024/01/25 19:18:35;;;;;;;13.85;5.50;;;;;;;;;;10445906;28;19941;-83
2024/01/25 19:23:36;;;;;;;;;;;;;;;;;;10444266;28;20030;-84
2024/01/25 19:28:37;;;;;;;18.52;7.05;;;;;;;;;;10459613;28;19912;-83
2024/01/25 19:33:38;;;;;;;14.25;5.75;;;;;;;;;;10438591;28;20025;-83
2024/01/25 19:38:42;;;;;;;;;;;;;;;;;;10442461;28;20124;-83
2024/01/25 19:43:43;;;;;;;10.25;4.47;;;;;;;;;;10454751;28;20414;-83
2024/01/25 19:48:44;;;;;;;18.73;6.90;;;;;;;;;;10443695;28;20048;-83
2024/01/25 19:53:45;;;;;;;;;;;;;;;;;;10447952;28;20058;-84
2024/01/25 19:58:46;;;;;;;10.80;4.18;;;;;;;;;;10451800;28;19912;-85
2024/01/25 20:03:47;;;;;;;9.77;4.50;;;;;;;;;;10424490;28;20083;-84
